メインページ
METAR-TAF:

METAR-TAF

空港 :

ミネアポリス, ミネソタ州, アメリカ合衆国

ミネアポリス・セントポール国際空港

緯度: 44-52-59N, 経度: 093-13-44W, 海抜: 256m

現時点の気象観測

当レポートは9分前の22:01(UTC)に作成
北/北東の風 15kt
気温 -6°C
湿度 93%
気圧 1011 hPa
視程: 4.8km
高度1400ftの曇り
小雪, 靄

METAR: KMSP 192201Z 03015KT 3SM -SN BR OVC014 M06/M07 A2986 RMK AO2 P0001 T10561067

時間: 16:10 (22:10 UTC)

予報

当レポートは1時間0分前の21:10(UTC)に作成
予報は19日の 21時(UTC)から 20日の 24時(UTC)まで有効
北/北東の風 15kt、最大22ktの突風を伴う
視程: 4.8km
高度2500ftの曇り
小雪, 靄
19日の 21時(UTC)から 19日の 24時(UTC)まで一時的に
視程: 8.0km
高度1500ftの曇り
(弱い) 凍雨, 雪, 靄
20日の 0000時(UTC)から
北/北東の風 11kt
視程: 9.7km
高度2000ftの曇り
弱いにわか雪
20日の 0400時(UTC)から
北/北東の風 8kt
視程: 10km
高度1500ftの曇り
近辺でにわか雨
20日の 0800時(UTC)から
北/北東の風 6kt
視程: 3.2km
高度1000ftの曇り
(弱い) 凍雨, 雪
20日の 1200時(UTC)から
の風 7kt
視程: 9.7km
高度1500ftの曇り
確率 30%
20日の 12時(UTC)から 20日の 18時(UTC)まで
視程: 3.2km
小雪, 靄
20日の 1800時(UTC)から
西/北西の風 12kt、最大20ktの突風を伴う
視程: 10km
高度2000ftの曇り

TAF: KMSP 192110Z 1921/2024 03015G22KT 3SM -SN BR OVC025 TEMPO 1921/1924 5SM -PLSN BR OVC015 FM200000 03011KT 6SM -SHSN OVC020 FM200400 03008KT P6SM VCSH OVC015 FM200800 03006KT 2SM -PLSN OVC010 FM201200 35007KT 6SM BR OVC015 PROB30 2012/2018 2SM -SN BR FM201800 30012G20KT P6SM OVC020

4,000以上の空港の気象観測と天気予報(METAR報とTAF報)

利用可能な観測所は地図上に黄色い丸と赤い丸で示す。

丸の上にカーソルを重ねると観測所名を参照できる。

次にクリックすると気象観測と天気予報を参照できる。

マップの切り替え:黒色「×」印の緑ボタンをクリックして拡大、「-」印の緑ボタンをクリックして縮小、緑色の三角印をクリックして隣りの地図に切り替え


METAR-TAF: